createdAt,value
2018-07-21T00:01:20.988Z,25.00
2018-07-21T00:03:49.935Z,25.00
2018-07-21T00:06:18.907Z,25.00
2018-07-21T00:08:48.012Z,25.00
2018-07-21T00:11:16.962Z,25.00
2018-07-21T00:13:45.914Z,25.00
2018-07-21T00:16:14.879Z,25.00
2018-07-21T00:18:43.831Z,25.00
2018-07-21T00:21:12.814Z,25.00
2018-07-21T00:23:41.766Z,25.00
2018-07-21T00:26:10.749Z,25.00
2018-07-21T00:28:39.703Z,24.90
2018-07-21T00:31:08.654Z,24.90
2018-07-21T00:33:37.651Z,24.90
2018-07-21T00:36:07.150Z,24.90
2018-07-21T00:38:36.106Z,24.90
2018-07-21T00:41:05.072Z,24.90
2018-07-21T00:43:34.020Z,24.90
2018-07-21T00:46:03.011Z,24.90
2018-07-21T00:48:31.966Z,24.90
2018-07-21T00:51:00.938Z,24.90
2018-07-21T00:53:31.638Z,24.90
2018-07-21T00:56:01.911Z,24.90
2018-07-21T00:58:31.055Z,24.90
2018-07-21T01:01:00.347Z,24.90
2018-07-21T01:03:29.310Z,24.90
2018-07-21T01:08:27.039Z,24.90
2018-07-21T01:10:56.014Z,24.90
2018-07-21T01:13:25.000Z,24.90
2018-07-21T01:15:54.067Z,24.90
2018-07-21T01:18:23.026Z,24.90
2018-07-21T01:23:20.710Z,24.90
2018-07-21T01:25:49.707Z,24.90
2018-07-21T01:28:18.658Z,24.90
2018-07-21T01:30:47.621Z,25.00
2018-07-21T01:33:16.579Z,25.00
2018-07-21T01:35:45.548Z,25.00
2018-07-21T01:38:14.512Z,25.00
2018-07-21T01:40:43.485Z,25.00
2018-07-21T01:43:12.437Z,25.10
2018-07-21T01:45:41.405Z,25.10
2018-07-21T01:48:10.345Z,25.10
2018-07-21T01:50:39.315Z,25.10
2018-07-21T01:53:08.302Z,25.10
2018-07-21T01:58:06.311Z,25.20
2018-07-21T02:00:35.282Z,25.20
2018-07-21T02:03:04.239Z,25.20
2018-07-21T02:05:33.206Z,25.20
2018-07-21T02:08:02.167Z,25.20
2018-07-21T02:10:31.174Z,25.20
2018-07-21T02:13:00.139Z,25.20
2018-07-21T02:15:29.081Z,25.30
2018-07-21T02:17:58.097Z,25.20
2018-07-21T02:20:27.058Z,25.20
2018-07-21T02:22:56.030Z,25.20
2018-07-21T02:25:25.009Z,25.20
2018-07-21T02:27:54.302Z,25.20
2018-07-21T02:30:23.259Z,25.20
2018-07-21T02:32:52.227Z,25.20
2018-07-21T02:35:21.190Z,25.20
2018-07-21T02:37:50.160Z,25.20
2018-07-21T02:40:19.119Z,25.20
2018-07-21T02:42:48.083Z,25.10
2018-07-21T02:45:17.040Z,25.20
2018-07-21T02:47:46.011Z,25.10
2018-07-21T02:50:14.974Z,25.10
2018-07-21T02:52:43.938Z,25.10
2018-07-21T02:55:12.910Z,25.10
2018-07-21T02:57:41.866Z,25.10
2018-07-21T03:00:10.827Z,25.10
2018-07-21T03:02:39.790Z,25.10
2018-07-21T03:05:08.741Z,25.00
2018-07-21T03:07:37.733Z,25.00
2018-07-21T03:10:06.887Z,25.00
2018-07-21T03:12:35.708Z,25.00
2018-07-21T03:17:33.455Z,25.00
2018-07-21T03:20:02.430Z,25.00
2018-07-21T03:22:31.386Z,25.00
2018-07-21T03:25:00.347Z,25.00
2018-07-21T03:27:29.331Z,25.00
2018-07-21T03:29:58.292Z,24.90
2018-07-21T03:32:27.255Z,24.90
2018-07-21T03:34:56.224Z,24.90
2018-07-21T03:37:25.189Z,24.90
2018-07-21T03:39:54.148Z,24.90
2018-07-21T03:42:23.121Z,24.90
2018-07-21T03:44:52.246Z,24.90
2018-07-21T03:47:21.210Z,24.90
2018-07-21T03:49:50.177Z,24.90
2018-07-21T03:52:19.142Z,24.90
2018-07-21T03:54:48.109Z,24.90
2018-07-21T03:57:17.079Z,24.90
2018-07-21T03:59:46.043Z,24.90
2018-07-21T04:02:15.019Z,24.90
2018-07-21T04:04:43.970Z,24.90
2018-07-21T04:07:12.935Z,24.90
2018-07-21T04:09:41.890Z,24.90
2018-07-21T04:12:11.214Z,24.90
2018-07-21T04:14:40.169Z,24.90
2018-07-21T04:17:13.271Z,24.90
2018-07-21T04:19:42.222Z,24.90
2018-07-21T04:22:11.192Z,24.90
2018-07-21T04:24:40.148Z,24.80
2018-07-21T04:27:09.117Z,24.80
2018-07-21T04:29:38.354Z,24.80
2018-07-21T04:32:07.404Z,24.80
2018-07-21T04:34:36.354Z,24.80
2018-07-21T04:37:05.347Z,24.80
2018-07-21T04:39:34.314Z,24.80
2018-07-21T04:42:03.287Z,24.80
2018-07-21T04:44:32.267Z,24.80
2018-07-21T04:47:01.239Z,24.80
2018-07-21T04:49:30.207Z,24.90
2018-07-21T04:51:59.163Z,24.80
2018-07-21T04:54:28.190Z,24.80
2018-07-21T04:56:57.134Z,24.80
2018-07-21T04:59:26.112Z,24.90
2018-07-21T05:01:55.067Z,24.90
2018-07-21T05:04:24.032Z,24.90
2018-07-21T05:06:52.985Z,24.90
2018-07-21T05:09:21.950Z,24.90
2018-07-21T05:11:50.910Z,24.90
2018-07-21T05:14:19.888Z,24.90
2018-07-21T05:16:48.838Z,24.90
2018-07-21T05:19:17.798Z,24.90
2018-07-21T05:21:46.839Z,24.90
2018-07-21T05:24:15.817Z,24.90
2018-07-21T05:26:44.786Z,24.90
2018-07-21T05:29:13.737Z,24.90
2018-07-21T05:31:42.706Z,24.90
2018-07-21T05:34:11.673Z,24.90
2018-07-21T05:36:40.631Z,24.90
2018-07-21T05:39:10.677Z,24.90
2018-07-21T05:41:40.858Z,24.90
2018-07-21T05:44:09.879Z,24.90
2018-07-21T05:46:38.856Z,24.90
2018-07-21T05:49:08.126Z,25.00
2018-07-21T05:51:37.087Z,25.00
2018-07-21T05:54:06.090Z,25.00
2018-07-21T05:56:35.358Z,25.00
2018-07-21T05:59:04.314Z,25.00
2018-07-21T06:01:33.266Z,25.00
2018-07-21T06:04:02.273Z,25.00
2018-07-21T06:06:31.294Z,25.00
2018-07-21T06:09:00.284Z,25.00
2018-07-21T06:11:29.231Z,25.00
2018-07-21T06:13:58.289Z,25.10
2018-07-21T06:16:27.244Z,25.10
2018-07-21T06:18:56.206Z,25.10
2018-07-21T06:21:25.170Z,25.10
2018-07-21T06:23:54.152Z,25.10
2018-07-21T06:26:23.119Z,25.10
2018-07-21T06:28:52.088Z,25.10
2018-07-21T06:31:21.043Z,25.10
2018-07-21T06:33:50.048Z,25.20
2018-07-21T06:36:19.013Z,25.20
2018-07-21T06:38:48.639Z,25.20
2018-07-21T06:41:17.586Z,25.20
2018-07-21T06:43:46.556Z,25.20
2018-07-21T06:46:15.519Z,25.20
2018-07-21T06:48:44.475Z,25.20
2018-07-21T06:51:13.438Z,25.20
2018-07-21T06:53:42.450Z,25.20
2018-07-21T06:56:11.399Z,25.30
2018-07-21T06:58:40.370Z,25.20
2018-07-21T07:01:09.333Z,25.30
2018-07-21T07:06:08.094Z,25.30
2018-07-21T07:08:37.847Z,25.30
2018-07-21T07:11:06.830Z,25.30
2018-07-21T07:13:35.792Z,25.30
2018-07-21T07:16:04.757Z,25.30
2018-07-21T07:18:33.730Z,25.30
2018-07-21T07:21:02.700Z,25.30
2018-07-21T07:23:31.650Z,25.30
2018-07-21T07:26:00.625Z,25.40
2018-07-21T07:28:29.583Z,25.40
2018-07-21T07:30:58.550Z,25.40
2018-07-21T07:33:27.559Z,25.40
2018-07-21T07:35:56.546Z,25.40
2018-07-21T07:38:25.511Z,25.40
2018-07-21T07:40:54.582Z,25.40
2018-07-21T07:43:23.531Z,25.40
2018-07-21T07:45:52.512Z,25.40
2018-07-21T07:48:21.458Z,25.50
2018-07-21T07:50:50.426Z,25.50
2018-07-21T07:53:19.408Z,25.50
2018-07-21T07:55:48.369Z,25.50
2018-07-21T07:58:17.331Z,25.50
2018-07-21T08:00:46.308Z,25.50
2018-07-21T08:03:15.279Z,25.50
2018-07-21T08:08:12.972Z,25.50
2018-07-21T08:10:41.942Z,25.50
2018-07-21T08:13:10.903Z,25.50
2018-07-21T08:15:39.895Z,25.50
2018-07-21T08:18:08.949Z,25.50
2018-07-21T08:20:37.870Z,25.50
2018-07-21T08:23:06.901Z,25.50
2018-07-21T08:25:35.910Z,25.50
2018-07-21T08:28:04.953Z,25.50
2018-07-21T08:30:33.935Z,25.50
2018-07-21T08:33:02.896Z,25.60
2018-07-21T08:35:31.865Z,25.60
2018-07-21T08:38:00.827Z,25.60
2018-07-21T08:40:29.799Z,25.60
2018-07-21T08:42:58.763Z,25.60
2018-07-21T08:45:27.736Z,25.60
2018-07-21T08:47:56.691Z,25.50
2018-07-21T08:50:25.700Z,25.50
2018-07-21T08:52:54.665Z,25.50
2018-07-21T08:55:23.647Z,25.50
2018-07-21T08:57:52.610Z,25.50
2018-07-21T09:00:21.579Z,25.50
2018-07-21T09:02:50.554Z,25.50
2018-07-21T09:05:19.531Z,25.50
2018-07-21T09:07:48.505Z,25.50
2018-07-21T09:10:17.509Z,25.50
2018-07-21T09:12:46.482Z,25.50
2018-07-21T09:15:15.447Z,25.40
2018-07-21T09:17:44.405Z,25.50
2018-07-21T09:20:13.366Z,25.40
2018-07-21T09:22:42.336Z,25.40
2018-07-21T09:25:11.307Z,25.40
2018-07-21T09:27:40.274Z,25.40
2018-07-21T09:30:09.242Z,25.40
2018-07-21T09:32:38.222Z,25.40
2018-07-21T09:35:07.223Z,25.40
2018-07-21T09:37:36.178Z,25.30
2018-07-21T09:40:05.255Z,25.30
2018-07-21T09:42:34.162Z,25.20
2018-07-21T09:45:03.134Z,25.20
2018-07-21T09:47:32.092Z,25.20
2018-07-21T09:50:01.065Z,25.10
2018-07-21T09:52:30.040Z,25.10
2018-07-21T09:54:59.075Z,25.00
2018-07-21T09:57:28.039Z,25.00
2018-07-21T09:59:57.007Z,25.00
2018-07-21T10:02:26.254Z,25.00
2018-07-21T10:04:55.598Z,24.90
2018-07-21T10:07:24.553Z,24.90
2018-07-21T10:09:53.513Z,24.90
2018-07-21T10:12:22.487Z,24.90
2018-07-21T10:14:51.443Z,24.90
2018-07-21T10:17:20.411Z,24.80
2018-07-21T10:19:49.358Z,24.80
2018-07-21T10:22:18.384Z,24.80
2018-07-21T10:24:52.596Z,24.80
2018-07-21T10:27:21.563Z,24.80
2018-07-21T10:29:50.542Z,24.80
2018-07-21T10:32:19.514Z,24.80
2018-07-21T10:34:48.477Z,24.80
2018-07-21T10:37:17.439Z,24.80
2018-07-21T10:39:46.399Z,24.80
2018-07-21T10:42:15.366Z,24.70
2018-07-21T10:44:44.340Z,24.80
2018-07-21T10:47:13.317Z,24.80
2018-07-21T10:49:42.305Z,24.80
2018-07-21T10:52:11.274Z,24.70
2018-07-21T10:54:40.230Z,24.80
2018-07-21T10:57:09.221Z,24.80
2018-07-21T10:59:38.213Z,24.80
2018-07-21T11:02:08.222Z,24.80
2018-07-21T11:04:37.450Z,24.80
2018-07-21T11:07:06.417Z,24.80
2018-07-21T11:09:35.466Z,24.80
2018-07-21T11:12:04.442Z,24.80
2018-07-21T11:14:33.403Z,24.80
2018-07-21T11:17:02.394Z,24.80
2018-07-21T11:19:31.358Z,24.80
2018-07-21T11:22:00.358Z,24.80
2018-07-21T11:24:29.280Z,24.80
2018-07-21T11:26:58.275Z,24.80
2018-07-21T11:29:27.232Z,24.80
2018-07-21T11:31:56.398Z,24.80
2018-07-21T11:34:25.351Z,24.80
2018-07-21T11:36:54.299Z,24.70
2018-07-21T11:39:23.250Z,24.70
2018-07-21T11:41:52.228Z,24.70
2018-07-21T11:44:21.199Z,24.70
2018-07-21T11:46:50.168Z,24.70
2018-07-21T11:49:19.126Z,24.70
2018-07-21T11:51:48.111Z,24.70
2018-07-21T11:54:17.258Z,24.70
2018-07-21T11:56:46.217Z,24.70
2018-07-21T11:59:15.188Z,24.70
2018-07-21T12:01:44.153Z,24.70
2018-07-21T12:04:13.116Z,24.70
2018-07-21T12:06:42.079Z,24.70
2018-07-21T12:09:11.042Z,24.70
2018-07-21T12:11:40.016Z,24.70
2018-07-21T12:14:09.004Z,24.70
2018-07-21T12:16:38.959Z,24.60
2018-07-21T12:19:07.927Z,24.60
2018-07-21T12:21:37.051Z,24.60
2018-07-21T12:24:06.361Z,24.60
2018-07-21T12:26:35.404Z,24.70
2018-07-21T12:29:04.314Z,24.70
2018-07-21T12:31:33.296Z,24.70
2018-07-21T12:34:02.274Z,24.70
2018-07-21T12:36:31.242Z,24.70
2018-07-21T12:39:00.195Z,24.70
2018-07-21T12:41:29.161Z,24.70
2018-07-21T12:43:58.142Z,24.70
2018-07-21T12:46:27.175Z,24.80
2018-07-21T12:48:56.142Z,24.80
2018-07-21T12:51:25.114Z,24.80
2018-07-21T12:53:54.092Z,24.80
2018-07-21T12:56:23.064Z,24.80
2018-07-21T13:01:20.774Z,24.80
2018-07-21T13:03:49.767Z,24.80
2018-07-21T13:06:18.719Z,24.80
2018-07-21T13:08:47.687Z,24.90
2018-07-21T13:11:16.714Z,24.90
2018-07-21T13:13:45.736Z,24.90
2018-07-21T13:16:14.730Z,24.90
2018-07-21T13:18:43.711Z,24.90
2018-07-21T13:21:12.678Z,24.90
2018-07-21T13:23:41.736Z,24.90
2018-07-21T13:26:10.740Z,24.90
2018-07-21T13:28:39.807Z,25.00
2018-07-21T13:31:08.799Z,25.00
2018-07-21T13:33:37.749Z,25.00
2018-07-21T13:36:06.715Z,25.00
2018-07-21T13:38:35.783Z,25.00
2018-07-21T13:41:04.957Z,25.10
2018-07-21T13:43:33.923Z,25.10
2018-07-21T13:46:02.967Z,25.10
2018-07-21T13:48:31.939Z,25.20
2018-07-21T13:51:00.895Z,25.20
2018-07-21T13:53:29.871Z,25.20
2018-07-21T13:55:58.846Z,25.30
2018-07-21T13:58:27.818Z,25.30
2018-07-21T14:00:56.783Z,25.30
2018-07-21T14:03:25.791Z,25.30
2018-07-21T14:05:54.768Z,25.30
2018-07-21T14:08:23.748Z,25.40
2018-07-21T14:10:52.724Z,25.40
2018-07-21T14:13:21.695Z,25.40
2018-07-21T14:15:50.669Z,25.40
2018-07-21T14:18:19.627Z,25.40
2018-07-21T14:20:48.579Z,25.40
2018-07-21T14:23:17.552Z,25.40
2018-07-21T14:25:46.519Z,25.40
2018-07-21T14:28:15.590Z,25.40
2018-07-21T14:30:44.630Z,25.40
2018-07-21T14:33:13.615Z,25.40
2018-07-21T14:35:42.633Z,25.40
2018-07-21T14:38:11.593Z,25.40
2018-07-21T14:40:40.552Z,25.40
2018-07-21T14:43:09.540Z,25.40
2018-07-21T14:45:38.515Z,25.40
2018-07-21T14:48:07.534Z,25.40
2018-07-21T14:50:37.300Z,25.40
2018-07-21T14:53:06.274Z,25.40
2018-07-21T14:55:35.233Z,25.40
2018-07-21T14:58:04.199Z,25.40
2018-07-21T15:00:33.158Z,25.40
2018-07-21T15:03:02.109Z,25.40
2018-07-21T15:05:31.087Z,25.40
2018-07-21T15:08:00.047Z,25.40
2018-07-21T15:10:28.999Z,25.40
2018-07-21T15:12:57.962Z,25.50
2018-07-21T15:17:55.644Z,25.50
2018-07-21T15:20:24.610Z,25.50
2018-07-21T15:22:53.560Z,25.50
2018-07-21T15:25:22.514Z,25.50
2018-07-21T15:27:52.670Z,25.50
2018-07-21T15:30:21.604Z,25.50
2018-07-21T15:32:50.572Z,25.50
2018-07-21T15:35:19.506Z,25.50
2018-07-21T15:37:48.460Z,25.50
2018-07-21T15:40:17.416Z,25.50
2018-07-21T15:42:46.362Z,25.50
2018-07-21T15:45:15.315Z,25.50
2018-07-21T15:47:44.307Z,25.50
2018-07-21T15:50:13.239Z,25.50
2018-07-21T15:52:42.187Z,25.50
2018-07-21T15:55:11.145Z,25.60
2018-07-21T15:57:40.109Z,25.60
2018-07-21T16:00:09.075Z,25.60
2018-07-21T16:02:38.052Z,25.60
2018-07-21T16:05:07.008Z,25.60
2018-07-21T16:07:35.958Z,25.60
2018-07-21T16:10:05.426Z,25.60
2018-07-21T16:12:34.362Z,25.60
2018-07-21T16:15:03.871Z,25.60
2018-07-21T16:17:32.312Z,25.60
2018-07-21T16:20:01.302Z,25.60
2018-07-21T16:22:30.260Z,25.60
2018-07-21T16:24:59.197Z,25.60
2018-07-21T16:27:28.164Z,25.60
2018-07-21T16:29:57.122Z,25.60
2018-07-21T16:32:26.089Z,25.60
2018-07-21T16:34:55.059Z,25.60
2018-07-21T16:37:23.999Z,25.60
2018-07-21T16:39:52.947Z,25.50
2018-07-21T16:42:21.915Z,25.50
2018-07-21T16:44:50.879Z,25.50
2018-07-21T16:47:19.848Z,25.50
2018-07-21T16:49:48.852Z,25.50
2018-07-21T16:52:17.798Z,25.50
2018-07-21T16:54:46.763Z,25.50
2018-07-21T16:57:15.703Z,25.50
2018-07-21T16:59:44.658Z,25.50
2018-07-21T17:02:14.404Z,25.50
2018-07-21T17:04:46.061Z,25.50
2018-07-21T17:07:15.031Z,25.50
2018-07-21T17:09:44.379Z,25.50
2018-07-21T17:12:13.321Z,25.50
2018-07-21T17:14:42.311Z,25.50
2018-07-21T17:17:12.503Z,25.50
2018-07-21T17:19:41.575Z,25.50
2018-07-21T17:22:10.586Z,25.50
2018-07-21T17:24:39.564Z,25.50
2018-07-21T17:27:09.295Z,25.40
2018-07-21T17:29:38.357Z,25.50
2018-07-21T17:32:09.478Z,25.40
2018-07-21T17:34:38.455Z,25.40
2018-07-21T17:37:07.415Z,25.40
2018-07-21T17:39:37.382Z,25.40
2018-07-21T17:42:06.640Z,25.40
2018-07-21T17:44:35.591Z,25.40
2018-07-21T17:47:04.783Z,25.40
2018-07-21T17:49:33.742Z,25.40
2018-07-21T17:52:02.687Z,25.30
2018-07-21T17:54:31.718Z,25.30
2018-07-21T17:57:02.082Z,25.30
2018-07-21T17:59:31.079Z,25.30
2018-07-21T18:02:00.033Z,25.30
2018-07-21T18:04:29.006Z,25.20
2018-07-21T18:06:57.958Z,25.20
2018-07-21T18:09:26.975Z,25.20
2018-07-21T18:11:55.954Z,25.20
2018-07-21T18:14:25.083Z,25.20
2018-07-21T18:16:54.068Z,25.20
2018-07-21T18:19:23.015Z,25.20
2018-07-21T18:21:51.987Z,25.20
2018-07-21T18:24:21.020Z,25.10
2018-07-21T18:29:20.682Z,25.10
2018-07-21T18:31:49.726Z,25.10
2018-07-21T18:34:18.706Z,25.10
2018-07-21T18:36:47.658Z,25.10
2018-07-21T18:39:16.607Z,25.00
2018-07-21T18:41:45.574Z,25.00
2018-07-21T18:44:14.535Z,25.00
2018-07-21T18:46:43.483Z,25.00
2018-07-21T18:49:12.431Z,25.00
2018-07-21T18:51:41.420Z,25.00
2018-07-21T18:54:10.371Z,25.00
2018-07-21T18:56:40.396Z,24.90
2018-07-21T18:59:09.374Z,24.90
2018-07-21T19:01:39.046Z,24.90
2018-07-21T19:04:08.009Z,24.90
2018-07-21T19:06:36.974Z,24.90
2018-07-21T19:09:09.062Z,24.90
2018-07-21T19:11:38.392Z,24.90
2018-07-21T19:14:07.346Z,24.80
2018-07-21T19:16:39.631Z,24.80
2018-07-21T19:19:08.703Z,24.80
2018-07-21T19:21:37.671Z,24.80
2018-07-21T19:24:06.618Z,24.70
2018-07-21T19:26:40.966Z,24.70
2018-07-21T19:29:15.433Z,24.70
2018-07-21T19:31:49.906Z,24.70
2018-07-21T19:34:18.819Z,24.70
2018-07-21T19:39:17.003Z,24.70
2018-07-21T19:42:05.376Z,24.70
2018-07-21T19:44:34.418Z,24.60
2018-07-21T19:47:03.594Z,24.60
2018-07-21T19:49:32.611Z,24.60
2018-07-21T19:52:01.563Z,24.60
2018-07-21T19:54:30.668Z,24.60
2018-07-21T19:56:59.672Z,24.60
2018-07-21T19:59:28.571Z,24.50
2018-07-21T20:01:57.564Z,24.50
2018-07-21T20:04:26.595Z,24.50
2018-07-21T20:06:55.545Z,24.50
2018-07-21T20:09:24.497Z,24.50
2018-07-21T20:11:53.466Z,24.50
2018-07-21T20:14:22.419Z,24.50
2018-07-21T20:16:51.370Z,24.50
2018-07-21T20:19:21.455Z,24.50
2018-07-21T20:21:50.668Z,24.50
2018-07-21T20:24:19.634Z,24.50
2018-07-21T20:26:49.367Z,24.40
2018-07-21T20:29:18.326Z,24.40
2018-07-21T20:31:47.291Z,24.40
2018-07-21T20:34:16.242Z,24.40
2018-07-21T20:36:45.192Z,24.40
2018-07-21T20:39:14.163Z,24.30
2018-07-21T20:41:43.115Z,24.30
2018-07-21T20:44:12.155Z,24.30
2018-07-21T20:46:41.127Z,24.30
2018-07-21T20:49:10.116Z,24.30
2018-07-21T20:51:39.096Z,24.30
2018-07-21T20:54:08.063Z,24.30
2018-07-21T20:56:37.028Z,24.30
2018-07-21T20:59:06.035Z,24.30
2018-07-21T21:01:35.013Z,24.30
2018-07-21T21:04:04.003Z,24.30
2018-07-21T21:06:32.990Z,24.30
2018-07-21T21:09:01.973Z,24.20
2018-07-21T21:11:30.972Z,24.20
2018-07-21T21:13:59.940Z,24.20
2018-07-21T21:16:28.900Z,24.20
2018-07-21T21:18:57.843Z,24.20
2018-07-21T21:21:26.795Z,24.20
2018-07-21T21:23:55.775Z,24.20
2018-07-21T21:26:24.731Z,24.20
2018-07-21T21:28:53.690Z,24.20
2018-07-21T21:31:22.640Z,24.20
2018-07-21T21:33:51.593Z,24.20
2018-07-21T21:36:20.533Z,24.20
2018-07-21T21:38:49.507Z,24.20
2018-07-21T21:41:18.475Z,24.20
2018-07-21T21:43:47.439Z,24.20
2018-07-21T21:46:16.387Z,24.10
2018-07-21T21:48:45.352Z,24.10
2018-07-21T21:51:14.312Z,24.10
2018-07-21T21:53:43.267Z,24.10
2018-07-21T21:56:12.223Z,24.10
2018-07-21T21:58:41.247Z,24.10
2018-07-21T22:01:12.575Z,24.10
2018-07-21T22:03:41.630Z,24.10
2018-07-21T22:06:10.575Z,24.10
2018-07-21T22:11:08.284Z,24.10
2018-07-21T22:13:37.899Z,24.10
2018-07-21T22:16:06.874Z,24.10
2018-07-21T22:18:35.831Z,24.00
2018-07-21T22:21:04.824Z,24.00
2018-07-21T22:23:33.778Z,24.00
2018-07-21T22:26:02.726Z,24.00
2018-07-21T22:28:31.699Z,24.00
2018-07-21T22:31:00.639Z,24.00
2018-07-21T22:33:29.621Z,24.00
2018-07-21T22:35:58.560Z,24.00
2018-07-21T22:38:27.511Z,24.00
2018-07-21T22:40:56.471Z,24.00
2018-07-21T22:43:25.491Z,24.00
2018-07-21T22:45:54.406Z,24.00
2018-07-21T22:48:23.375Z,24.00
2018-07-21T22:50:52.328Z,24.00
2018-07-21T22:53:21.287Z,24.00
2018-07-21T22:55:50.250Z,23.90
2018-07-21T22:58:19.220Z,23.90
2018-07-21T23:00:48.220Z,23.90
2018-07-21T23:03:17.197Z,23.90
2018-07-21T23:05:46.167Z,23.90
2018-07-21T23:08:15.132Z,23.90
2018-07-21T23:10:44.087Z,23.90
2018-07-21T23:13:13.038Z,23.90
2018-07-21T23:15:42.014Z,23.90
2018-07-21T23:18:10.954Z,23.80
2018-07-21T23:20:39.908Z,23.80
2018-07-21T23:23:08.859Z,23.80
2018-07-21T23:25:37.814Z,23.80
2018-07-21T23:28:06.765Z,23.80
2018-07-21T23:30:35.727Z,23.80
2018-07-21T23:33:04.702Z,23.80
2018-07-21T23:35:33.710Z,23.80
2018-07-21T23:38:02.667Z,23.80
2018-07-21T23:40:31.627Z,23.80
2018-07-21T23:43:00.582Z,23.80
2018-07-21T23:45:29.544Z,23.80
2018-07-21T23:47:58.983Z,23.80
2018-07-21T23:50:27.946Z,23.80
2018-07-21T23:52:56.898Z,23.80
2018-07-21T23:55:25.867Z,23.80
2018-07-21T23:57:54.824Z,23.80
